createdAt,value
2018-07-01T00:00:01.976Z,77.20
2018-07-01T00:02:40.398Z,77.80
2018-07-01T00:05:19.241Z,77.80
2018-07-01T00:07:50.071Z,77.90
2018-07-01T00:10:19.422Z,78.20
2018-07-01T00:12:51.466Z,77.90
2018-07-01T00:15:19.755Z,78.50
2018-07-01T00:17:53.276Z,78.50
2018-07-01T00:20:23.003Z,78.40
2018-07-01T00:22:52.222Z,78.70
2018-07-01T00:25:22.942Z,78.40
2018-07-01T00:30:24.101Z,78.90
2018-07-01T00:32:52.406Z,79.20
2018-07-01T00:35:21.234Z,79.10
2018-07-01T00:37:55.122Z,79.40
2018-07-01T00:40:23.518Z,79.90
2018-07-01T00:42:55.164Z,79.60
2018-07-01T00:45:23.558Z,80.00
2018-07-01T00:47:51.891Z,80.30
2018-07-01T00:50:21.111Z,80.20
2018-07-01T00:52:49.534Z,80.50
2018-07-01T00:55:17.799Z,80.70
2018-07-01T00:57:46.059Z,80.80
2018-07-01T01:00:14.554Z,80.90
2018-07-01T01:02:49.531Z,80.60
2018-07-01T01:05:17.977Z,80.60
2018-07-01T01:07:48.946Z,80.90
2018-07-01T01:10:19.676Z,81.10
2018-07-01T01:12:49.897Z,81.30
2018-07-01T01:15:18.687Z,81.10
2018-07-01T01:17:47.189Z,81.20
2018-07-01T01:20:15.449Z,81.40
2018-07-01T01:22:43.826Z,81.80
2018-07-01T01:25:12.151Z,81.50
2018-07-01T01:27:40.582Z,81.40
2018-07-01T01:30:09.167Z,81.30
2018-07-01T01:32:39.415Z,81.20
2018-07-01T01:35:08.318Z,81.40
2018-07-01T01:37:37.609Z,81.80
2018-07-01T01:40:06.953Z,82.10
2018-07-01T01:42:41.833Z,82.40
2018-07-01T01:45:15.515Z,82.70
2018-07-01T01:47:48.122Z,82.80
2018-07-01T01:50:23.146Z,82.80
2018-07-01T01:53:12.369Z,82.80
2018-07-01T01:55:47.833Z,82.90
2018-07-01T01:58:27.675Z,83.10
2018-07-01T02:01:00.401Z,83.30
2018-07-01T02:03:34.200Z,83.30
2018-07-01T02:06:07.291Z,83.30
2018-07-01T02:08:38.226Z,83.30
2018-07-01T02:11:06.522Z,83.40
2018-07-01T02:13:36.417Z,83.90
2018-07-01T02:16:08.509Z,83.90
2018-07-01T02:18:39.050Z,84.10
2018-07-01T02:21:11.462Z,84.70
2018-07-01T02:23:51.447Z,84.40
2018-07-01T02:26:19.831Z,84.80
2018-07-01T02:28:48.442Z,84.80
2018-07-01T02:31:18.293Z,84.90
2018-07-01T02:33:46.684Z,85.40
2018-07-01T02:36:20.231Z,86.20
2018-07-01T02:38:54.077Z,86.30
2018-07-01T02:41:22.447Z,86.70
2018-07-01T02:44:01.738Z,87.40
2018-07-01T02:48:59.420Z,88.40
2018-07-01T02:51:29.000Z,88.50
2018-07-01T02:53:58.509Z,88.80
2018-07-01T02:56:27.669Z,89.10
2018-07-01T02:58:56.479Z,89.50
2018-07-01T03:01:31.519Z,89.70
2018-07-01T03:04:00.750Z,89.60
2018-07-01T03:06:32.477Z,89.80
2018-07-01T03:09:01.799Z,89.40
2018-07-01T03:11:30.097Z,89.50
2018-07-01T03:13:58.414Z,89.80
2018-07-01T03:16:26.650Z,90.10
2018-07-01T03:18:56.446Z,90.30
2018-07-01T03:21:30.794Z,90.40
2018-07-01T03:23:59.684Z,90.60
2018-07-01T03:26:29.154Z,90.80
2018-07-01T03:29:01.004Z,91.00
2018-07-01T03:31:29.941Z,91.40
2018-07-01T03:34:01.106Z,91.60
2018-07-01T03:36:29.379Z,91.70
2018-07-01T03:38:58.088Z,91.60
2018-07-01T03:41:26.911Z,91.80
2018-07-01T03:43:55.736Z,91.70
2018-07-01T03:46:24.090Z,91.80
2018-07-01T03:48:52.602Z,91.80
2018-07-01T03:51:21.797Z,92.00
2018-07-01T03:53:54.474Z,91.80
2018-07-01T03:56:22.750Z,91.90
2018-07-01T03:58:51.671Z,91.80
2018-07-01T04:01:19.994Z,91.70
2018-07-01T04:03:48.291Z,92.10
2018-07-01T04:06:16.583Z,91.70
2018-07-01T04:08:44.846Z,91.60
2018-07-01T04:11:13.126Z,91.60
2018-07-01T04:13:41.387Z,91.70
2018-07-01T04:16:10.350Z,91.70
2018-07-01T04:18:38.745Z,91.80
2018-07-01T04:21:07.147Z,92.00
2018-07-01T04:23:39.276Z,92.00
2018-07-01T04:26:08.267Z,92.20
2018-07-01T04:28:40.506Z,92.20
2018-07-01T04:31:08.957Z,92.10
2018-07-01T04:33:37.262Z,91.80
2018-07-01T04:36:05.706Z,91.50
2018-07-01T04:38:33.982Z,91.40
2018-07-01T04:41:02.876Z,91.00
2018-07-01T04:43:31.182Z,90.80
2018-07-01T04:45:59.496Z,90.30
2018-07-01T04:48:28.294Z,90.00
2018-07-01T04:50:56.701Z,90.10
2018-07-01T04:53:28.472Z,89.30
2018-07-01T04:55:56.910Z,89.30
2018-07-01T04:58:25.182Z,88.50
2018-07-01T05:00:54.002Z,88.20
2018-07-01T05:03:22.484Z,86.60
2018-07-01T05:05:51.096Z,86.20
2018-07-01T05:08:19.499Z,86.30
2018-07-01T05:10:48.421Z,86.00
2018-07-01T05:13:16.682Z,85.30
2018-07-01T05:15:44.959Z,85.70
2018-07-01T05:18:13.274Z,87.00
2018-07-01T05:23:10.026Z,88.80
2018-07-01T05:25:38.510Z,87.80
2018-07-01T05:28:06.890Z,87.20
2018-07-01T05:30:35.211Z,84.30
2018-07-01T05:33:03.658Z,83.50
2018-07-01T05:35:31.982Z,83.20
2018-07-01T05:38:00.636Z,82.90
2018-07-01T05:40:29.438Z,81.80
2018-07-01T05:42:58.701Z,82.40
2018-07-01T05:45:27.050Z,81.60
2018-07-01T05:47:55.364Z,81.50
2018-07-01T05:50:23.673Z,81.60
2018-07-01T05:52:51.959Z,81.10
2018-07-01T05:55:20.230Z,80.10
2018-07-01T05:57:48.948Z,80.70
2018-07-01T06:00:17.593Z,80.00
2018-07-01T06:02:49.915Z,78.90
2018-07-01T06:05:18.587Z,79.50
2018-07-01T06:07:47.461Z,77.60
2018-07-01T06:10:15.985Z,77.90
2018-07-01T06:12:44.735Z,78.40
2018-07-01T06:15:13.094Z,78.30
2018-07-01T06:17:41.508Z,76.90
2018-07-01T06:20:10.046Z,78.40
2018-07-01T06:22:38.462Z,77.00
2018-07-01T06:25:07.649Z,77.00
2018-07-01T06:27:36.470Z,76.90
2018-07-01T06:30:06.545Z,76.60
2018-07-01T06:32:36.042Z,76.40
2018-07-01T06:35:05.466Z,76.90
2018-07-01T06:37:33.854Z,76.90
2018-07-01T06:40:02.130Z,76.30
2018-07-01T06:42:30.563Z,77.00
2018-07-01T06:47:27.893Z,77.00
2018-07-01T06:50:02.726Z,76.10
2018-07-01T06:52:32.131Z,76.00
2018-07-01T06:55:01.841Z,75.60
2018-07-01T06:57:30.727Z,74.80
2018-07-01T07:00:10.895Z,74.90
2018-07-01T07:02:39.954Z,74.90
2018-07-01T07:05:08.354Z,75.10
2018-07-01T07:07:37.082Z,72.90
2018-07-01T07:10:06.445Z,72.30
2018-07-01T07:12:36.717Z,72.30
2018-07-01T07:15:05.172Z,71.90
2018-07-01T07:17:33.416Z,72.00
2018-07-01T07:20:03.147Z,71.20
2018-07-01T07:22:31.446Z,71.20
2018-07-01T07:25:00.352Z,70.70
2018-07-01T07:27:33.205Z,70.70
2018-07-01T07:30:03.230Z,69.10
2018-07-01T07:32:34.655Z,67.30
2018-07-01T07:35:03.034Z,67.60
2018-07-01T07:37:31.290Z,67.30
2018-07-01T07:40:02.720Z,67.80
2018-07-01T07:45:02.905Z,66.00
2018-07-01T07:47:39.413Z,64.90
2018-07-01T07:50:11.496Z,66.20
2018-07-01T07:52:40.343Z,64.30
2018-07-01T07:55:09.474Z,64.70
2018-07-01T07:57:37.817Z,63.60
2018-07-01T08:00:06.631Z,62.90
2018-07-01T08:02:35.254Z,63.60
2018-07-01T08:05:05.223Z,64.10
2018-07-01T08:07:34.695Z,61.50
2018-07-01T08:10:04.961Z,60.80
2018-07-01T08:12:34.284Z,62.00
2018-07-01T08:15:03.736Z,60.40
2018-07-01T08:17:32.077Z,60.10
2018-07-01T08:20:05.630Z,60.60
2018-07-01T08:22:35.171Z,58.80
2018-07-01T08:25:04.393Z,58.40
2018-07-01T08:27:34.034Z,56.90
2018-07-01T08:30:03.263Z,56.70
2018-07-01T08:32:31.774Z,56.50
2018-07-01T08:35:00.675Z,55.70
2018-07-01T08:37:29.793Z,55.70
2018-07-01T08:42:29.232Z,54.40
2018-07-01T08:44:58.519Z,52.50
2018-07-01T08:47:26.789Z,51.60
2018-07-01T08:49:55.050Z,52.10
2018-07-01T08:52:23.369Z,50.90
2018-07-01T08:54:51.655Z,51.10
2018-07-01T08:57:20.946Z,50.40
2018-07-01T08:59:49.623Z,50.70
2018-07-01T09:02:18.546Z,49.30
2018-07-01T09:04:46.843Z,50.00
2018-07-01T09:07:15.882Z,50.60
2018-07-01T09:09:44.386Z,49.00
2018-07-01T09:12:12.686Z,48.80
2018-07-01T09:14:41.034Z,48.60
2018-07-01T09:17:09.547Z,49.60
2018-07-01T09:19:37.842Z,49.10
2018-07-01T09:22:06.501Z,49.10
2018-07-01T09:24:34.786Z,49.10
2018-07-01T09:27:03.050Z,49.40
2018-07-01T09:29:33.258Z,48.90
2018-07-01T09:32:02.514Z,49.10
2018-07-01T09:34:31.018Z,48.40
2018-07-01T09:37:00.033Z,48.10
2018-07-01T09:39:36.257Z,48.40
2018-07-01T09:42:05.035Z,49.40
2018-07-01T09:44:38.370Z,48.70
2018-07-01T09:47:09.578Z,49.70
2018-07-01T09:49:39.048Z,49.00
2018-07-01T09:52:14.674Z,49.10
2018-07-01T09:54:43.998Z,48.90
2018-07-01T09:57:13.931Z,48.50
2018-07-01T09:59:42.331Z,47.80
2018-07-01T10:02:10.677Z,46.70
2018-07-01T10:04:39.662Z,47.40
2018-07-01T10:07:07.945Z,47.10
2018-07-01T10:09:36.834Z,46.70
2018-07-01T10:12:06.279Z,47.40
2018-07-01T10:14:34.619Z,46.40
2018-07-01T10:17:02.918Z,47.60
2018-07-01T10:19:31.195Z,48.10
2018-07-01T10:21:59.798Z,48.70
2018-07-01T10:27:03.683Z,47.90
2018-07-01T10:29:32.917Z,47.90
2018-07-01T10:32:01.471Z,48.00
2018-07-01T10:34:30.599Z,49.50
2018-07-01T10:36:59.501Z,49.50
2018-07-01T10:39:36.828Z,49.70
2018-07-01T10:42:06.357Z,49.00
2018-07-01T10:44:34.762Z,49.20
2018-07-01T10:47:03.140Z,48.60
2018-07-01T10:49:31.403Z,48.60
2018-07-01T10:51:59.701Z,48.50
2018-07-01T10:54:29.962Z,49.50
2018-07-01T10:56:58.233Z,50.90
2018-07-01T10:59:27.138Z,50.10
2018-07-01T11:01:58.580Z,50.80
2018-07-01T11:04:34.204Z,52.60
2018-07-01T11:07:02.734Z,53.40
2018-07-01T11:09:30.990Z,54.10
2018-07-01T11:11:59.314Z,54.10
2018-07-01T11:14:27.595Z,55.80
2018-07-01T11:16:55.958Z,54.40
2018-07-01T11:19:24.274Z,55.80
2018-07-01T11:21:52.539Z,55.40
2018-07-01T11:24:22.138Z,55.90
2018-07-01T11:26:50.756Z,56.20
2018-07-01T11:29:22.635Z,57.00
2018-07-01T11:31:51.736Z,56.80
2018-07-01T11:34:21.876Z,57.60
2018-07-01T11:39:19.672Z,56.50
2018-07-01T11:41:50.159Z,56.20
2018-07-01T11:44:32.210Z,56.60
2018-07-01T11:47:03.463Z,56.60
2018-07-01T11:54:47.896Z,54.50
2018-07-01T11:57:16.729Z,54.20
2018-07-01T11:59:45.726Z,55.70
2018-07-01T12:02:14.050Z,56.20
2018-07-01T12:05:02.954Z,56.10
2018-07-01T12:07:17.390Z,56.90
2018-07-01T12:09:49.032Z,56.90
2018-07-01T12:12:21.192Z,56.50
2018-07-01T12:14:49.922Z,57.30
2018-07-01T12:17:21.366Z,58.00
2018-07-01T12:19:49.722Z,57.00
2018-07-01T12:22:19.346Z,56.40
2018-07-01T12:24:49.801Z,56.70
2018-07-01T12:29:56.854Z,57.00
2018-07-01T12:32:25.178Z,57.00
2018-07-01T12:34:53.486Z,56.20
2018-07-01T12:37:21.773Z,55.80
2018-07-01T12:39:50.116Z,56.50
2018-07-01T12:42:18.687Z,56.70
2018-07-01T12:44:46.997Z,56.90
2018-07-01T12:47:15.871Z,57.40
2018-07-01T12:49:44.685Z,56.60
2018-07-01T12:52:14.194Z,56.70
2018-07-01T12:54:44.723Z,56.30
2018-07-01T12:57:13.692Z,55.80
2018-07-01T12:59:42.835Z,57.30
2018-07-01T13:02:11.362Z,57.00
2018-07-01T13:04:55.559Z,56.30
2018-07-01T13:07:28.625Z,56.40
2018-07-01T13:10:02.473Z,57.20
2018-07-01T13:12:31.737Z,57.00
2018-07-01T13:15:02.590Z,55.80
2018-07-01T13:17:31.620Z,57.10
2018-07-01T13:20:00.962Z,56.90
2018-07-01T13:22:30.530Z,55.80
2018-07-01T13:25:01.851Z,56.50
2018-07-01T13:27:32.896Z,56.60
2018-07-01T13:30:02.604Z,56.10
2018-07-01T13:32:31.614Z,56.30
2018-07-01T13:35:01.619Z,55.60
2018-07-01T13:37:29.895Z,56.90
2018-07-01T13:39:58.267Z,55.60
2018-07-01T13:42:32.986Z,55.40
2018-07-01T13:45:01.911Z,55.70
2018-07-01T13:47:30.262Z,55.50
2018-07-01T13:49:59.963Z,55.70
2018-07-01T13:52:29.358Z,56.60
2018-07-01T13:54:57.659Z,56.40
2018-07-01T13:57:27.610Z,56.90
2018-07-01T13:59:56.132Z,56.70
2018-07-01T14:02:25.042Z,54.50
2018-07-01T14:04:54.225Z,54.80
2018-07-01T14:07:23.203Z,54.50
2018-07-01T14:09:52.290Z,55.00
2018-07-01T14:12:22.026Z,53.30
2018-07-01T14:14:50.529Z,54.50
2018-07-01T14:17:19.482Z,54.20
2018-07-01T14:19:48.615Z,55.00
2018-07-01T14:22:18.722Z,54.80
2018-07-01T14:24:48.802Z,54.70
2018-07-01T14:27:19.792Z,55.00
2018-07-01T14:29:50.057Z,54.20
2018-07-01T14:32:19.297Z,54.10
2018-07-01T14:34:48.234Z,54.50
2018-07-01T14:37:17.867Z,54.10
2018-07-01T14:39:48.015Z,54.80
2018-07-01T14:42:17.084Z,54.00
2018-07-01T14:44:47.514Z,54.70
2018-07-01T14:47:15.821Z,55.40
2018-07-01T14:49:44.141Z,54.20
2018-07-01T14:52:12.514Z,53.50
2018-07-01T14:54:40.771Z,54.40
2018-07-01T14:57:09.207Z,53.30
2018-07-01T14:59:41.736Z,53.40
2018-07-01T15:02:10.932Z,53.30
2018-07-01T15:04:39.859Z,53.50
2018-07-01T15:07:09.903Z,53.50
2018-07-01T15:09:39.807Z,53.80
2018-07-01T15:12:08.709Z,53.60
2018-07-01T15:17:06.830Z,52.70
2018-07-01T15:19:36.492Z,51.90
2018-07-01T15:22:08.711Z,52.20
2018-07-01T15:24:40.966Z,52.70
2018-07-01T15:27:09.377Z,53.00
2018-07-01T15:29:40.241Z,52.70
2018-07-01T15:32:09.826Z,52.80
2018-07-01T15:34:41.522Z,52.40
2018-07-01T15:37:09.811Z,52.60
2018-07-01T15:39:38.142Z,52.00
2018-07-01T15:42:06.510Z,52.00
2018-07-01T15:44:34.880Z,52.00
2018-07-01T15:47:03.148Z,51.90
2018-07-01T15:49:31.450Z,52.70
2018-07-01T15:51:59.877Z,52.50
2018-07-01T15:54:28.171Z,52.40
2018-07-01T15:56:56.421Z,52.90
2018-07-01T15:59:24.766Z,52.70
2018-07-01T16:01:53.028Z,51.60
2018-07-01T16:04:21.310Z,51.60
2018-07-01T16:06:49.594Z,51.70
2018-07-01T16:09:18.048Z,51.70
2018-07-01T16:14:14.686Z,52.80
2018-07-01T16:16:43.441Z,52.70
2018-07-01T16:19:11.714Z,52.70
2018-07-01T16:21:40.551Z,53.10
2018-07-01T16:24:09.246Z,53.10
2018-07-01T16:26:42.898Z,53.20
2018-07-01T16:29:11.161Z,52.50
2018-07-01T16:31:39.530Z,52.80
2018-07-01T16:34:07.791Z,52.50
2018-07-01T16:39:11.273Z,52.00
2018-07-01T16:41:41.618Z,52.90
2018-07-01T16:44:10.711Z,52.80
2018-07-01T16:46:40.720Z,53.80
2018-07-01T16:49:09.660Z,54.20
2018-07-01T16:51:39.376Z,53.00
2018-07-01T16:54:07.946Z,52.70
2018-07-01T16:56:36.540Z,52.90
2018-07-01T16:59:05.717Z,52.80
2018-07-01T17:01:34.315Z,52.70
2018-07-01T17:04:03.170Z,52.80
2018-07-01T17:06:31.454Z,53.20
2018-07-01T17:09:00.045Z,53.20
2018-07-01T17:11:28.604Z,53.30
2018-07-01T17:13:56.881Z,53.50
2018-07-01T17:16:25.178Z,53.40
2018-07-01T17:18:53.724Z,53.40
2018-07-01T17:21:22.008Z,53.50
2018-07-01T17:23:50.270Z,54.30
2018-07-01T17:26:18.587Z,54.10
2018-07-01T17:28:46.855Z,53.50
2018-07-01T17:31:20.610Z,53.50
2018-07-01T17:33:49.463Z,54.30
2018-07-01T17:36:17.823Z,55.00
2018-07-01T17:38:46.316Z,54.30
2018-07-01T17:41:14.726Z,54.20
2018-07-01T17:43:43.548Z,54.40
2018-07-01T17:46:11.919Z,54.80
2018-07-01T17:48:48.835Z,54.80
2018-07-01T17:51:28.802Z,54.70
2018-07-01T17:53:58.672Z,55.40
2018-07-01T17:56:33.388Z,54.40
2018-07-01T17:59:01.690Z,54.70
2018-07-01T18:01:31.987Z,55.10
2018-07-01T18:04:04.795Z,54.20
2018-07-01T18:06:34.691Z,54.60
2018-07-01T18:09:03.535Z,53.90
2018-07-01T18:11:35.830Z,54.00
2018-07-01T18:14:05.938Z,53.80
2018-07-01T18:16:37.399Z,54.20
2018-07-01T18:19:06.483Z,54.90
2018-07-01T18:21:36.378Z,54.70
2018-07-01T18:24:35.140Z,55.30
2018-07-01T18:26:33.965Z,55.70
2018-07-01T18:29:13.248Z,55.50
2018-07-01T18:31:34.037Z,55.70
2018-07-01T18:34:11.441Z,56.40
2018-07-01T18:36:45.025Z,55.00
2018-07-01T18:39:18.238Z,55.10
2018-07-01T18:44:41.334Z,54.70
2018-07-01T18:47:15.575Z,55.30
2018-07-01T18:49:51.086Z,54.70
2018-07-01T18:52:19.546Z,55.00
2018-07-01T18:54:52.130Z,54.80
2018-07-01T18:57:25.735Z,55.00
2018-07-01T19:00:00.919Z,55.00
2018-07-01T19:02:34.065Z,55.30
2018-07-01T19:05:05.502Z,55.60
2018-07-01T19:07:52.029Z,56.10
2018-07-01T19:10:20.382Z,56.20
2018-07-01T19:12:48.643Z,56.30
2018-07-01T19:15:28.956Z,56.50
2018-07-01T19:18:03.750Z,56.70
2018-07-01T19:20:35.504Z,57.20
2018-07-01T19:23:06.465Z,56.90
2018-07-01T19:25:35.331Z,57.20
2018-07-01T19:28:08.099Z,57.40
2018-07-01T19:30:41.139Z,57.50
2018-07-01T19:33:11.647Z,58.00
2018-07-01T19:35:54.674Z,58.20
2018-07-01T19:38:24.964Z,58.40
2018-07-01T19:40:55.219Z,58.50
2018-07-01T19:43:23.934Z,58.70
2018-07-01T19:45:52.627Z,58.90
2018-07-01T19:48:21.118Z,58.90
2018-07-01T19:51:09.533Z,59.30
2018-07-01T19:53:44.485Z,59.40
2018-07-01T19:56:14.735Z,59.70
2018-07-01T19:58:44.509Z,59.50
2018-07-01T20:03:42.254Z,65.60
2018-07-01T20:06:11.596Z,67.30
2018-07-01T20:08:54.411Z,67.90
2018-07-01T20:11:22.970Z,68.90
2018-07-01T20:14:18.564Z,70.10
2018-07-01T20:16:49.186Z,71.00
2018-07-01T20:19:19.300Z,70.90
2018-07-01T20:21:47.754Z,70.40
2018-07-01T20:24:16.014Z,70.30
2018-07-01T20:26:44.606Z,69.00
2018-07-01T20:29:12.922Z,69.50
2018-07-01T20:31:41.221Z,69.80
2018-07-01T20:34:09.584Z,70.10
2018-07-01T20:36:37.982Z,70.10
2018-07-01T20:39:09.534Z,70.10
2018-07-01T20:41:38.734Z,70.20
2018-07-01T20:44:07.107Z,70.80
2018-07-01T20:46:36.320Z,71.30
2018-07-01T20:49:05.882Z,71.30
2018-07-01T20:51:35.559Z,71.50
2018-07-01T20:54:04.208Z,71.80
2018-07-01T20:56:35.034Z,71.60
2018-07-01T20:59:04.931Z,71.80
2018-07-01T21:01:35.440Z,71.60
2018-07-01T21:04:05.945Z,71.80
2018-07-01T21:06:34.464Z,71.70
2018-07-01T21:09:06.432Z,71.80
2018-07-01T21:14:13.046Z,72.30
2018-07-01T21:16:41.751Z,72.50
2018-07-01T21:19:10.432Z,72.70
2018-07-01T21:21:40.410Z,72.90
2018-07-01T21:24:09.903Z,73.10
2018-07-01T21:26:40.618Z,73.10
2018-07-01T21:29:10.154Z,73.40
2018-07-01T21:31:38.959Z,73.30
2018-07-01T21:34:08.161Z,73.40
2018-07-01T21:36:39.536Z,73.60
2018-07-01T21:39:10.929Z,73.80
2018-07-01T21:41:41.635Z,73.50
2018-07-01T21:44:10.111Z,74.00
2018-07-01T21:46:38.573Z,73.90
2018-07-01T21:49:07.698Z,74.00
2018-07-01T21:51:37.293Z,74.10
2018-07-01T21:54:05.779Z,74.50
2018-07-01T21:56:34.783Z,74.40
2018-07-01T21:59:04.078Z,75.10
2018-07-01T22:01:33.179Z,75.00
2018-07-01T22:04:01.617Z,75.20
2018-07-01T22:06:35.655Z,75.40
2018-07-01T22:09:06.731Z,75.40
2018-07-01T22:11:49.933Z,76.00
2018-07-01T22:14:31.232Z,75.90
2018-07-01T22:17:01.298Z,76.10
2018-07-01T22:19:32.440Z,76.20
2018-07-01T22:22:01.613Z,76.50
2018-07-01T22:24:31.506Z,76.50
2018-07-01T22:27:00.883Z,76.80
2018-07-01T22:29:30.487Z,76.40
2018-07-01T22:32:03.006Z,76.40
2018-07-01T22:34:31.714Z,76.50
2018-07-01T22:37:00.018Z,76.40
2018-07-01T22:39:34.102Z,76.20
2018-07-01T22:44:40.074Z,76.10
2018-07-01T22:47:10.055Z,76.20
2018-07-01T22:49:39.928Z,76.10
2018-07-01T22:52:08.346Z,76.10
2018-07-01T22:54:39.026Z,76.10
2018-07-01T22:57:08.811Z,76.20
2018-07-01T22:59:38.846Z,76.30
2018-07-01T23:03:13.541Z,76.50
2018-07-01T23:05:42.725Z,76.30
2018-07-01T23:08:12.364Z,76.30
2018-07-01T23:10:42.582Z,76.40
2018-07-01T23:13:11.879Z,76.50
2018-07-01T23:15:41.504Z,76.40
2018-07-01T23:18:11.324Z,76.60
2018-07-01T23:20:40.127Z,76.60
2018-07-01T23:23:11.358Z,76.70
2018-07-01T23:25:42.753Z,76.80
2018-07-01T23:28:12.268Z,77.30
2018-07-01T23:30:41.526Z,77.20
2018-07-01T23:33:10.538Z,77.30
2018-07-01T23:35:39.901Z,77.40
2018-07-01T23:40:44.446Z,77.90
2018-07-01T23:43:14.105Z,78.00
2018-07-01T23:45:43.048Z,78.10
2018-07-01T23:48:12.220Z,78.30
2018-07-01T23:50:40.702Z,78.60
2018-07-01T23:53:12.122Z,79.10
2018-07-01T23:55:41.243Z,79.40
2018-07-01T23:58:13.144Z,79.80
